createdAt,value
2018-09-20T00:00:30.646Z,18.03
2018-09-20T00:01:30.572Z,18.00
2018-09-20T00:02:30.496Z,18.07
2018-09-20T00:03:30.431Z,17.97
2018-09-20T00:04:30.348Z,18.01
2018-09-20T00:05:30.272Z,17.95
2018-09-20T00:06:30.198Z,18.08
2018-09-20T00:07:30.122Z,18.07
2018-09-20T00:08:30.051Z,18.04
2018-09-20T00:09:29.974Z,18.00
2018-09-20T00:10:29.900Z,18.05
2018-09-20T00:11:29.826Z,18.07
2018-09-20T00:12:29.756Z,17.98
2018-09-20T00:13:29.676Z,18.03
2018-09-20T00:14:29.604Z,18.00
2018-09-20T00:17:01.572Z,18.00
2018-09-20T00:18:01.453Z,17.94
2018-09-20T00:20:05.800Z,17.94
2018-09-20T00:21:05.684Z,17.97
2018-09-20T00:22:05.602Z,17.89
2018-09-20T00:23:05.530Z,17.95
2018-09-20T00:24:05.486Z,17.92
2018-09-20T00:25:05.379Z,17.89
2018-09-20T00:26:05.304Z,17.85
2018-09-20T00:27:05.229Z,17.89
2018-09-20T00:28:05.154Z,17.92
2018-09-20T00:29:05.081Z,17.92
2018-09-20T00:30:05.004Z,17.87
2018-09-20T00:31:04.940Z,17.90
2018-09-20T00:32:04.857Z,17.85
2018-09-20T00:33:04.781Z,17.89
2018-09-20T00:34:04.706Z,17.95
2018-09-20T00:35:04.633Z,17.92
2018-09-20T00:36:04.564Z,17.90
2018-09-20T00:37:04.484Z,17.86
2018-09-20T00:38:04.408Z,17.86
2018-09-20T00:39:04.343Z,17.87
2018-09-20T00:40:04.259Z,17.89
2018-09-20T00:41:04.187Z,17.85
2018-09-20T00:42:04.113Z,17.86
2018-09-20T00:43:04.036Z,17.86
2018-09-20T00:44:03.961Z,17.90
2018-09-20T00:45:03.897Z,17.92
2018-09-20T00:46:03.813Z,17.86
2018-09-20T00:47:03.735Z,17.87
2018-09-20T00:48:03.663Z,17.86
2018-09-20T00:49:03.599Z,17.90
2018-09-20T00:50:03.514Z,17.87
2018-09-20T00:51:03.438Z,17.86
2018-09-20T00:52:03.365Z,17.86
2018-09-20T00:53:03.292Z,17.89
2018-09-20T00:54:03.219Z,17.90
2018-09-20T00:55:03.143Z,17.87
2018-09-20T00:56:03.071Z,17.90
2018-09-20T00:57:02.993Z,17.94
2018-09-20T00:58:02.916Z,17.94
2018-09-20T00:59:02.841Z,17.95
2018-09-20T01:00:02.768Z,17.95
2018-09-20T01:01:02.693Z,17.90
2018-09-20T01:02:02.616Z,17.92
2018-09-20T01:03:02.543Z,17.95
2018-09-20T01:04:02.470Z,17.92
2018-09-20T01:05:02.400Z,17.94
2018-09-20T01:06:02.321Z,17.98
2018-09-20T01:07:02.248Z,17.98
2018-09-20T01:08:02.170Z,17.92
2018-09-20T01:09:02.095Z,17.95
2018-09-20T01:10:02.021Z,17.92
2018-09-20T01:11:01.947Z,17.98
2018-09-20T01:12:01.875Z,18.00
2018-09-20T01:13:01.799Z,17.98
2018-09-20T01:14:01.724Z,17.97
2018-09-20T01:15:01.649Z,17.90
2018-09-20T01:16:01.572Z,17.90
2018-09-20T01:17:01.501Z,18.00
2018-09-20T01:18:01.423Z,18.00
2018-09-20T01:19:01.353Z,17.94
2018-09-20T01:20:01.279Z,17.86
2018-09-20T01:21:01.209Z,17.85
2018-09-20T01:22:01.144Z,17.85
2018-09-20T01:23:01.053Z,17.74
2018-09-20T01:24:00.985Z,17.83
2018-09-20T01:25:00.903Z,17.86
2018-09-20T01:26:00.829Z,17.87
2018-09-20T01:27:00.752Z,17.78
2018-09-20T01:28:00.678Z,17.85
2018-09-20T01:29:00.604Z,17.79
2018-09-20T01:30:00.531Z,17.72
2018-09-20T01:31:00.454Z,17.85
2018-09-20T01:32:00.380Z,17.80
2018-09-20T01:33:00.304Z,17.87
2018-09-20T01:34:00.231Z,17.78
2018-09-20T01:35:00.155Z,17.86
2018-09-20T01:36:00.086Z,17.83
2018-09-20T01:37:00.016Z,17.76
2018-09-20T01:37:59.934Z,17.71
2018-09-20T01:38:59.857Z,17.79
2018-09-20T01:39:59.784Z,17.83
2018-09-20T01:40:59.711Z,17.89
2018-09-20T01:41:59.635Z,17.90
2018-09-20T01:42:59.559Z,17.90
2018-09-20T01:43:59.485Z,17.92
2018-09-20T01:44:59.423Z,17.92
2018-09-20T01:45:59.335Z,17.87
2018-09-20T01:46:59.261Z,17.92
2018-09-20T01:47:59.186Z,17.94
2018-09-20T01:48:59.113Z,17.85
2018-09-20T01:49:59.038Z,17.90
2018-09-20T01:50:58.961Z,17.90
2018-09-20T01:51:58.895Z,17.92
2018-09-20T01:52:58.816Z,17.92
2018-09-20T01:53:58.745Z,17.92
2018-09-20T01:54:58.664Z,17.94
2018-09-20T01:55:58.587Z,17.90
2018-09-20T01:56:58.515Z,17.92
2018-09-20T01:57:58.441Z,17.87
2018-09-20T01:58:58.367Z,17.80
2018-09-20T01:59:58.290Z,17.82
2018-09-20T02:00:58.225Z,17.78
2018-09-20T02:01:58.140Z,17.71
2018-09-20T02:02:58.066Z,17.76
2018-09-20T02:03:57.992Z,17.76
2018-09-20T02:04:57.921Z,17.78
2018-09-20T02:05:57.841Z,17.72
2018-09-20T02:06:57.766Z,17.79
2018-09-20T02:07:57.691Z,17.71
2018-09-20T02:08:57.622Z,17.79
2018-09-20T02:09:57.544Z,17.82
2018-09-20T02:10:57.469Z,17.80
2018-09-20T02:11:57.398Z,17.76
2018-09-20T02:12:57.319Z,17.78
2018-09-20T02:13:57.254Z,17.79
2018-09-20T02:14:57.171Z,17.80
2018-09-20T02:15:57.097Z,17.80
2018-09-20T02:16:57.020Z,17.83
2018-09-20T02:17:56.945Z,17.86
2018-09-20T02:18:56.870Z,17.82
2018-09-20T02:19:56.802Z,17.76
2018-09-20T02:20:56.725Z,17.65
2018-09-20T02:21:56.646Z,17.80
2018-09-20T02:22:56.574Z,17.72
2018-09-20T02:23:56.499Z,17.74
2018-09-20T02:24:56.428Z,17.79
2018-09-20T02:25:56.349Z,17.74
2018-09-20T02:26:56.283Z,17.78
2018-09-20T02:27:56.200Z,17.76
2018-09-20T02:28:56.132Z,17.78
2018-09-20T02:29:56.052Z,17.71
2018-09-20T02:30:55.979Z,17.71
2018-09-20T02:31:55.902Z,17.79
2018-09-20T02:32:55.826Z,17.85
2018-09-20T02:33:55.758Z,17.76
2018-09-20T02:34:55.686Z,17.79
2018-09-20T02:35:55.602Z,17.79
2018-09-20T02:36:55.528Z,17.82
2018-09-20T02:37:55.456Z,17.78
2018-09-20T02:38:55.382Z,17.76
2018-09-20T02:39:55.306Z,17.78
2018-09-20T02:40:55.229Z,17.80
2018-09-20T02:41:55.156Z,17.71
2018-09-20T02:42:55.087Z,17.71
2018-09-20T02:43:55.009Z,17.78
2018-09-20T02:44:54.932Z,17.86
2018-09-20T02:45:54.854Z,17.72
2018-09-20T02:46:54.781Z,17.71
2018-09-20T02:47:54.712Z,17.72
2018-09-20T02:48:54.632Z,17.74
2018-09-20T02:49:54.557Z,17.71
2018-09-20T02:50:54.480Z,17.76
2018-09-20T02:51:54.421Z,17.76
2018-09-20T02:52:54.332Z,17.71
2018-09-20T02:53:54.276Z,17.79
2018-09-20T02:54:54.183Z,17.79
2018-09-20T02:55:54.108Z,17.78
2018-09-20T02:56:54.037Z,17.78
2018-09-20T02:57:53.963Z,17.80
2018-09-20T02:58:53.911Z,17.86
2018-09-20T02:59:53.811Z,17.82
2018-09-20T03:00:53.736Z,17.87
2018-09-20T03:01:53.662Z,17.74
2018-09-20T03:02:53.586Z,17.76
2018-09-20T03:03:53.511Z,17.80
2018-09-20T03:04:53.438Z,17.80
2018-09-20T03:05:53.362Z,17.82
2018-09-20T03:06:53.288Z,17.85
2018-09-20T03:07:53.212Z,17.82
2018-09-20T03:08:53.152Z,17.79
2018-09-20T03:09:53.064Z,17.78
2018-09-20T03:10:52.986Z,17.83
2018-09-20T03:11:52.917Z,17.71
2018-09-20T03:12:52.837Z,17.67
2018-09-20T03:13:52.763Z,17.83
2018-09-20T03:14:52.687Z,17.76
2018-09-20T03:15:52.616Z,17.71
2018-09-20T03:16:52.541Z,17.72
2018-09-20T03:17:52.462Z,17.70
2018-09-20T03:18:52.397Z,17.72
2018-09-20T03:19:52.316Z,17.78
2018-09-20T03:20:52.241Z,17.70
2018-09-20T03:21:52.164Z,17.76
2018-09-20T03:22:52.092Z,17.72
2018-09-20T03:23:52.016Z,17.78
2018-09-20T03:24:51.942Z,17.76
2018-09-20T03:25:51.866Z,17.85
2018-09-20T03:26:51.794Z,17.72
2018-09-20T03:27:51.716Z,17.80
2018-09-20T03:28:51.642Z,17.78
2018-09-20T03:29:51.568Z,17.64
2018-09-20T03:30:51.646Z,17.64
2018-09-20T03:31:51.418Z,17.68
2018-09-20T03:32:51.347Z,17.65
2018-09-20T03:33:51.268Z,17.64
2018-09-20T03:34:51.197Z,17.54
2018-09-20T03:35:51.119Z,17.52
2018-09-20T03:36:51.046Z,17.64
2018-09-20T03:37:50.970Z,17.54
2018-09-20T03:38:50.894Z,17.56
2018-09-20T03:39:50.823Z,17.56
2018-09-20T03:40:50.748Z,17.65
2018-09-20T03:41:50.676Z,17.68
2018-09-20T03:42:50.596Z,17.63
2018-09-20T03:43:50.523Z,17.65
2018-09-20T03:44:50.447Z,17.68
2018-09-20T03:45:50.371Z,17.65
2018-09-20T03:46:50.299Z,17.68
2018-09-20T03:47:50.220Z,17.54
2018-09-20T03:48:50.145Z,17.64
2018-09-20T03:49:50.071Z,17.57
2018-09-20T03:50:50.014Z,17.70
2018-09-20T03:51:49.921Z,17.67
2018-09-20T03:52:49.845Z,17.63
2018-09-20T03:53:49.772Z,17.65
2018-09-20T03:54:49.703Z,17.65
2018-09-20T03:55:49.621Z,17.65
2018-09-20T03:56:49.549Z,17.64
2018-09-20T03:57:49.473Z,17.57
2018-09-20T03:58:49.398Z,17.64
2018-09-20T03:59:49.323Z,17.57
2018-09-20T04:00:49.247Z,17.64
2018-09-20T04:01:49.174Z,17.74
2018-09-20T04:02:49.099Z,17.67
2018-09-20T04:03:49.022Z,17.64
2018-09-20T04:04:48.949Z,17.64
2018-09-20T04:05:48.872Z,17.59
2018-09-20T04:06:48.806Z,17.60
2018-09-20T04:07:48.728Z,17.56
2018-09-20T04:08:48.660Z,17.54
2018-09-20T04:09:48.642Z,17.65
2018-09-20T04:10:48.500Z,17.54
2018-09-20T04:11:48.424Z,17.54
2018-09-20T04:12:48.350Z,17.60
2018-09-20T04:13:48.272Z,17.57
2018-09-20T04:14:48.203Z,17.59
2018-09-20T04:15:48.128Z,17.60
2018-09-20T04:16:48.050Z,17.63
2018-09-20T04:17:47.978Z,17.56
2018-09-20T04:18:47.898Z,17.60
2018-09-20T04:19:47.827Z,17.54
2018-09-20T04:20:47.751Z,17.65
2018-09-20T04:21:47.675Z,17.63
2018-09-20T04:22:47.602Z,17.57
2018-09-20T04:23:47.526Z,17.52
2018-09-20T04:24:47.454Z,17.59
2018-09-20T04:25:47.377Z,17.68
2018-09-20T04:26:47.304Z,17.63
2018-09-20T04:27:47.228Z,17.60
2018-09-20T04:28:47.155Z,17.64
2018-09-20T04:29:47.077Z,17.67
2018-09-20T04:30:47.004Z,17.74
2018-09-20T04:31:47.027Z,17.65
2018-09-20T04:32:46.855Z,17.60
2018-09-20T04:33:46.788Z,17.63
2018-09-20T04:34:46.704Z,17.71
2018-09-20T04:35:46.629Z,17.60
2018-09-20T04:36:46.554Z,17.57
2018-09-20T04:37:46.479Z,17.65
2018-09-20T04:38:46.404Z,17.63
2018-09-20T04:39:46.331Z,17.60
2018-09-20T04:40:46.256Z,17.54
2018-09-20T04:41:46.179Z,17.63
2018-09-20T04:42:46.106Z,17.59
2018-09-20T04:43:46.041Z,17.68
2018-09-20T04:44:45.957Z,17.60
2018-09-20T04:45:45.892Z,17.63
2018-09-20T04:46:45.804Z,17.63
2018-09-20T04:47:45.730Z,17.57
2018-09-20T04:48:45.659Z,17.60
2018-09-20T04:49:45.586Z,17.57
2018-09-20T04:50:45.506Z,17.57
2018-09-20T04:51:45.432Z,17.57
2018-09-20T04:52:45.358Z,17.68
2018-09-20T04:53:45.285Z,17.64
2018-09-20T04:54:45.208Z,17.63
2018-09-20T04:55:45.148Z,17.59
2018-09-20T04:56:45.060Z,17.68
2018-09-20T04:57:44.984Z,17.64
2018-09-20T04:58:44.908Z,17.68
2018-09-20T04:59:44.850Z,17.60
2018-09-20T05:00:44.760Z,17.67
2018-09-20T05:01:44.685Z,17.67
2018-09-20T05:02:44.614Z,17.67
2018-09-20T05:03:44.536Z,17.65
2018-09-20T05:04:44.462Z,17.67
2018-09-20T05:05:44.393Z,17.67
2018-09-20T05:06:44.311Z,17.70
2018-09-20T05:07:44.236Z,17.60
2018-09-20T05:08:44.161Z,17.63
2018-09-20T05:09:44.087Z,17.64
2018-09-20T05:10:44.017Z,17.57
2018-09-20T05:11:43.937Z,17.59
2018-09-20T05:12:43.862Z,17.60
2018-09-20T05:13:43.784Z,17.63
2018-09-20T05:14:43.756Z,17.63
2018-09-20T05:15:43.636Z,17.64
2018-09-20T05:16:43.565Z,17.76
2018-09-20T05:17:43.487Z,17.64
2018-09-20T05:18:43.412Z,17.63
2018-09-20T05:19:43.337Z,17.57
2018-09-20T05:20:43.264Z,17.65
2018-09-20T05:21:43.187Z,17.59
2018-09-20T05:22:43.112Z,17.60
2018-09-20T05:23:43.037Z,17.63
2018-09-20T05:24:42.962Z,17.64
2018-09-20T05:25:42.893Z,17.54
2018-09-20T05:26:42.812Z,17.56
2018-09-20T05:27:42.736Z,17.54
2018-09-20T05:28:42.661Z,17.54
2018-09-20T05:29:42.590Z,17.57
2018-09-20T05:30:42.512Z,17.63
2018-09-20T05:31:42.441Z,17.67
2018-09-20T05:32:42.363Z,17.72
2018-09-20T05:33:42.292Z,17.70
2018-09-20T05:34:42.213Z,17.78
2018-09-20T05:35:42.141Z,17.82
2018-09-20T05:36:42.063Z,17.80
2018-09-20T05:37:41.987Z,17.78
2018-09-20T05:38:41.924Z,17.71
2018-09-20T05:39:41.840Z,17.74
2018-09-20T05:40:41.765Z,17.70
2018-09-20T05:41:41.689Z,17.71
2018-09-20T05:42:41.645Z,17.82
2018-09-20T05:43:41.573Z,17.78
2018-09-20T05:44:41.465Z,17.79
2018-09-20T05:45:41.391Z,17.78
2018-09-20T05:46:41.313Z,17.83
2018-09-20T05:47:41.239Z,17.79
2018-09-20T05:48:41.187Z,17.79
2018-09-20T05:49:41.090Z,17.79
2018-09-20T05:50:41.030Z,17.86
2018-09-20T05:51:40.947Z,17.86
2018-09-20T05:52:40.865Z,17.82
2018-09-20T05:53:40.796Z,17.86
2018-09-20T05:54:40.720Z,17.85
2018-09-20T05:55:40.644Z,17.87
2018-09-20T05:56:40.569Z,17.92
2018-09-20T05:57:40.495Z,17.87
2018-09-20T05:58:40.420Z,17.95
2018-09-20T05:59:40.344Z,17.97
2018-09-20T06:00:40.275Z,17.97
2018-09-20T06:01:40.201Z,17.98
2018-09-20T06:02:40.119Z,18.05
2018-09-20T06:03:40.059Z,18.07
2018-09-20T06:04:39.991Z,18.01
2018-09-20T06:05:39.907Z,18.07
2018-09-20T06:06:39.829Z,18.10
2018-09-20T06:07:39.746Z,18.03
2018-09-20T06:08:39.673Z,18.00
2018-09-20T06:09:39.608Z,18.07
2018-09-20T06:10:39.533Z,18.04
2018-09-20T06:11:39.451Z,18.04
2018-09-20T06:12:39.380Z,18.04
2018-09-20T06:13:39.300Z,18.08
2018-09-20T06:14:39.228Z,18.10
2018-09-20T06:15:39.153Z,18.07
2018-09-20T06:16:39.083Z,18.05
2018-09-20T06:17:39.005Z,18.08
2018-09-20T06:18:46.095Z,18.04
2018-09-20T06:20:42.834Z,18.07
2018-09-20T06:21:42.727Z,18.16
2018-09-20T06:23:46.497Z,18.18
2018-09-20T06:24:46.418Z,18.22
2018-09-20T06:25:46.343Z,18.22
2018-09-20T06:26:46.282Z,18.20
2018-09-20T06:27:46.258Z,18.08
2018-09-20T06:28:46.123Z,18.08
2018-09-20T06:29:46.050Z,18.08
2018-09-20T06:30:45.969Z,18.05
2018-09-20T06:31:45.906Z,18.08
2018-09-20T06:32:45.824Z,18.00
2018-09-20T06:33:45.754Z,18.01
2018-09-20T06:34:45.734Z,18.04
2018-09-20T06:35:45.603Z,17.95
2018-09-20T06:36:45.537Z,18.01
2018-09-20T06:37:45.458Z,18.10
2018-09-20T06:38:45.376Z,17.97
2018-09-20T06:39:45.306Z,18.05
2018-09-20T06:40:45.233Z,18.07
2018-09-20T06:41:45.153Z,18.07
2018-09-20T06:42:45.079Z,18.07
2018-09-20T06:43:45.003Z,18.15
2018-09-20T06:44:44.940Z,18.07
2018-09-20T06:45:44.858Z,18.15
2018-09-20T06:46:44.783Z,18.18
2018-09-20T06:47:44.711Z,18.11
2018-09-20T06:48:44.632Z,18.15
2018-09-20T06:49:44.563Z,18.19
2018-09-20T06:50:44.485Z,18.18
2018-09-20T06:51:44.409Z,18.04
2018-09-20T06:52:44.337Z,18.05
2018-09-20T06:53:44.263Z,18.15
2018-09-20T06:54:44.192Z,18.11
2018-09-20T06:55:44.121Z,18.19
2018-09-20T06:56:44.092Z,18.22
2018-09-20T06:57:43.966Z,18.25
2018-09-20T06:58:43.897Z,18.28
2018-09-20T06:59:43.818Z,18.31
2018-09-20T07:00:43.747Z,18.35
2018-09-20T07:01:43.675Z,18.28
2018-09-20T07:02:43.623Z,18.41
2018-09-20T07:03:43.528Z,18.38
2018-09-20T07:04:43.452Z,18.40
2018-09-20T07:05:43.377Z,18.31
2018-09-20T07:06:43.301Z,18.34
2018-09-20T07:07:43.224Z,18.35
2018-09-20T07:08:43.153Z,18.43
2018-09-20T07:09:43.080Z,18.41
2018-09-20T07:10:43.019Z,18.45
2018-09-20T07:11:42.931Z,18.37
2018-09-20T07:12:42.853Z,18.35
2018-09-20T07:13:42.867Z,18.43
2018-09-20T07:14:42.706Z,18.44
2018-09-20T07:15:42.632Z,18.38
2018-09-20T07:16:42.572Z,18.43
2018-09-20T07:17:42.486Z,18.44
2018-09-20T07:18:42.414Z,18.29
2018-09-20T07:19:42.345Z,18.41
2018-09-20T07:20:42.262Z,18.34
2018-09-20T07:21:42.190Z,18.38
2018-09-20T07:22:42.115Z,18.40
2018-09-20T07:23:42.041Z,18.33
2018-09-20T07:24:41.973Z,18.40
2018-09-20T07:25:41.939Z,18.47
2018-09-20T07:26:41.820Z,18.49
2018-09-20T07:27:41.748Z,18.55
2018-09-20T07:28:41.678Z,18.52
2018-09-20T07:29:41.598Z,18.55
2018-09-20T07:30:41.524Z,18.63
2018-09-20T07:31:41.453Z,18.58
2018-09-20T07:32:41.429Z,18.63
2018-09-20T07:33:41.300Z,18.66
2018-09-20T07:34:41.234Z,18.66
2018-09-20T07:35:41.153Z,18.70
2018-09-20T07:36:41.085Z,18.80
2018-09-20T07:37:41.011Z,18.77
2018-09-20T07:38:40.930Z,18.71
2018-09-20T07:39:40.860Z,18.66
2018-09-20T07:40:40.796Z,18.66
2018-09-20T07:41:40.709Z,18.70
2018-09-20T07:42:40.641Z,18.70
2018-09-20T07:43:40.626Z,18.65
2018-09-20T07:44:40.492Z,18.63
2018-09-20T07:45:40.420Z,18.59
2018-09-20T07:46:40.342Z,18.53
2018-09-20T07:47:40.269Z,18.45
2018-09-20T07:48:40.197Z,18.53
2018-09-20T07:49:40.124Z,18.50
2018-09-20T07:50:40.052Z,18.53
2018-09-20T07:51:39.974Z,18.58
2018-09-20T07:52:39.914Z,18.52
2018-09-20T07:53:39.914Z,18.59
2018-09-20T07:54:39.768Z,18.58
2018-09-20T07:55:39.678Z,18.62
2018-09-20T07:56:39.608Z,18.65
2018-09-20T07:57:39.530Z,18.66
2018-09-20T07:58:39.459Z,18.70
2018-09-20T07:59:39.385Z,18.80
2018-09-20T08:00:39.310Z,18.81
2018-09-20T08:01:39.303Z,18.81
2018-09-20T08:02:39.159Z,18.81
2018-09-20T08:03:39.087Z,18.86
2018-09-20T08:04:39.011Z,18.86
2018-09-20T08:05:38.938Z,18.83
2018-09-20T08:06:38.865Z,18.89
2018-09-20T08:07:38.792Z,18.93
2018-09-20T08:08:38.720Z,19.00
2018-09-20T08:09:38.647Z,18.98
2018-09-20T08:10:38.579Z,19.02
2018-09-20T08:11:38.497Z,19.08
2018-09-20T08:12:38.421Z,19.16
2018-09-20T08:13:38.347Z,19.16
2018-09-20T08:14:38.275Z,19.12
2018-09-20T08:15:38.204Z,19.16
2018-09-20T08:16:38.127Z,19.21
2018-09-20T08:17:38.060Z,19.26
2018-09-20T08:18:37.988Z,19.24
2018-09-20T08:19:37.917Z,19.29
2018-09-20T08:20:37.831Z,19.33
2018-09-20T08:21:37.819Z,19.34
2018-09-20T08:22:37.685Z,19.41
2018-09-20T08:23:37.612Z,19.40
2018-09-20T08:24:37.537Z,19.54
2018-09-20T08:25:37.470Z,19.51
2018-09-20T08:26:37.398Z,19.47
2018-09-20T08:27:37.342Z,19.58
2018-09-20T08:28:37.296Z,19.48
2018-09-20T08:29:37.169Z,19.59
2018-09-20T08:30:37.101Z,19.62
2018-09-20T08:31:37.031Z,19.63
2018-09-20T08:32:36.949Z,19.59
2018-09-20T08:33:36.875Z,19.67
2018-09-20T08:34:36.805Z,19.74
2018-09-20T08:35:36.734Z,19.77
2018-09-20T08:36:36.660Z,19.77
2018-09-20T08:37:36.630Z,19.77
2018-09-20T08:38:36.508Z,19.85
2018-09-20T08:39:36.439Z,19.86
2018-09-20T08:40:36.361Z,19.82
2018-09-20T08:41:36.291Z,19.88
2018-09-20T08:42:36.214Z,19.89
2018-09-20T08:43:36.141Z,19.99
2018-09-20T08:44:36.074Z,19.99
2018-09-20T08:45:36.004Z,20.02
2018-09-20T08:46:35.923Z,20.09
2018-09-20T08:47:35.852Z,20.09
2018-09-20T08:48:35.782Z,20.11
2018-09-20T08:49:35.704Z,20.21
2018-09-20T08:50:35.629Z,20.22
2018-09-20T08:51:35.556Z,20.18
2018-09-20T08:52:35.485Z,20.25
2018-09-20T08:53:35.412Z,20.34
2018-09-20T08:54:35.340Z,20.44
2018-09-20T08:55:35.269Z,20.40
2018-09-20T08:56:35.190Z,20.31
2018-09-20T08:57:35.122Z,20.43
2018-09-20T08:58:35.045Z,20.52
2018-09-20T08:59:34.972Z,20.55
2018-09-20T09:00:34.900Z,20.56
2018-09-20T09:01:34.830Z,20.60
2018-09-20T09:02:34.758Z,20.66
2018-09-20T09:03:34.721Z,20.72
2018-09-20T09:04:34.629Z,20.74
2018-09-20T09:05:34.541Z,20.70
2018-09-20T09:06:34.461Z,20.78
2018-09-20T09:07:34.388Z,20.75
2018-09-20T09:08:34.321Z,20.78
2018-09-20T09:09:34.249Z,20.80
2018-09-20T09:10:34.174Z,20.90
2018-09-20T09:11:34.099Z,20.80
2018-09-20T09:12:34.035Z,20.95
2018-09-20T09:13:33.958Z,21.00
2018-09-20T09:14:33.886Z,20.95
2018-09-20T09:15:33.809Z,21.07
2018-09-20T09:16:33.736Z,21.07
2018-09-20T09:17:33.663Z,21.09
2018-09-20T09:18:33.590Z,21.17
2018-09-20T09:19:33.580Z,21.20
2018-09-20T09:20:33.444Z,21.21
2018-09-20T09:21:33.379Z,21.30
2018-09-20T09:22:33.298Z,21.39
2018-09-20T09:23:33.228Z,21.42
2018-09-20T09:24:33.155Z,21.37
2018-09-20T09:25:33.170Z,21.43
2018-09-20T09:26:33.010Z,21.46
2018-09-20T09:27:32.935Z,21.45
2018-09-20T09:28:32.950Z,21.54
2018-09-20T09:29:32.796Z,21.67
2018-09-20T09:30:32.726Z,21.62
2018-09-20T09:31:32.653Z,21.73
2018-09-20T09:32:32.592Z,21.67
2018-09-20T09:33:32.503Z,21.69
2018-09-20T09:34:32.443Z,21.77
2018-09-20T09:35:32.363Z,21.79
2018-09-20T09:36:32.287Z,21.83
2018-09-20T09:37:32.218Z,21.88
2018-09-20T09:38:32.141Z,21.88
2018-09-20T09:39:32.074Z,21.92
2018-09-20T09:40:31.997Z,22.04
2018-09-20T09:41:31.925Z,22.04
2018-09-20T09:42:31.854Z,22.04
2018-09-20T09:43:31.783Z,22.07
2018-09-20T09:44:31.710Z,22.13
2018-09-20T09:45:31.638Z,22.00
2018-09-20T09:46:31.568Z,22.11
2018-09-20T09:47:31.495Z,22.06
2018-09-20T09:48:31.427Z,22.22
2018-09-20T09:49:31.355Z,22.26
2018-09-20T09:50:31.279Z,22.33
2018-09-20T09:51:31.205Z,22.38
2018-09-20T09:52:31.132Z,22.38
2018-09-20T09:53:31.063Z,22.47
2018-09-20T09:54:31.057Z,22.51
2018-09-20T09:55:30.923Z,22.54
2018-09-20T09:56:30.852Z,22.57
2018-09-20T09:57:30.777Z,22.63
2018-09-20T09:58:30.706Z,22.63
2018-09-20T09:59:30.630Z,22.72
2018-09-20T10:00:30.559Z,22.84
2018-09-20T10:01:30.490Z,22.80
2018-09-20T10:02:30.447Z,22.81
2018-09-20T10:03:30.347Z,22.88
2018-09-20T10:04:30.275Z,22.90
2018-09-20T10:05:30.204Z,22.98
2018-09-20T10:06:30.131Z,23.12
2018-09-20T10:07:30.062Z,23.05
2018-09-20T10:08:29.991Z,23.06
2018-09-20T10:09:29.920Z,23.17
2018-09-20T10:10:29.887Z,23.23
2018-09-20T10:11:29.780Z,23.39
2018-09-20T10:12:29.714Z,23.31
2018-09-20T10:13:29.687Z,23.43
2018-09-20T10:14:29.563Z,23.50
2018-09-20T10:15:29.497Z,23.47
2018-09-20T10:16:29.453Z,23.43
2018-09-20T10:17:29.352Z,23.51
2018-09-20T10:18:29.280Z,23.63
2018-09-20T10:19:29.210Z,23.56
2018-09-20T10:20:29.136Z,23.55
2018-09-20T10:21:29.114Z,23.62
2018-09-20T10:22:29.002Z,23.66
2018-09-20T10:23:28.929Z,23.69
2018-09-20T10:24:28.895Z,23.84
2018-09-20T10:25:28.786Z,23.80
2018-09-20T10:26:28.713Z,23.83
2018-09-20T10:27:28.643Z,23.99
2018-09-20T10:28:28.576Z,24.01
2018-09-20T10:29:28.555Z,24.13
2018-09-20T10:30:28.430Z,24.21
2018-09-20T10:31:28.465Z,24.30
2018-09-20T10:32:28.326Z,24.36
2018-09-20T10:33:28.222Z,24.45
2018-09-20T10:34:28.181Z,24.51
2018-09-20T10:35:28.081Z,24.58
2018-09-20T10:36:28.009Z,24.63
2018-09-20T10:37:27.943Z,24.60
2018-09-20T10:38:27.906Z,24.69
2018-09-20T10:39:27.799Z,24.76
2018-09-20T10:40:27.731Z,24.70
2018-09-20T10:41:27.660Z,24.81
2018-09-20T10:42:27.588Z,24.84
2018-09-20T10:43:27.533Z,24.89
2018-09-20T10:44:27.449Z,24.95
2018-09-20T10:45:27.383Z,24.99
2018-09-20T10:46:27.311Z,25.07
2018-09-20T10:47:27.315Z,25.07
2018-09-20T10:48:27.173Z,25.11
2018-09-20T10:49:27.101Z,25.17
2018-09-20T10:50:27.034Z,25.22
2018-09-20T10:51:26.989Z,25.31
2018-09-20T10:52:26.893Z,25.32
2018-09-20T10:53:26.827Z,25.38
2018-09-20T10:54:26.814Z,25.40
2018-09-20T10:55:26.712Z,25.48
2018-09-20T10:56:26.614Z,25.47
2018-09-20T10:57:26.545Z,25.51
2018-09-20T10:58:26.479Z,25.47
2018-09-20T10:59:26.405Z,25.72
2018-09-20T11:00:26.337Z,25.68
2018-09-20T11:01:26.268Z,25.78
2018-09-20T11:02:26.197Z,25.88
2018-09-20T11:03:26.195Z,25.84
2018-09-20T11:04:26.059Z,25.96
2018-09-20T11:05:25.992Z,25.99
2018-09-20T11:06:25.920Z,26.05
2018-09-20T11:07:25.860Z,26.23
2018-09-20T11:08:25.797Z,26.31
2018-09-20T11:09:25.720Z,26.44
2018-09-20T11:10:25.651Z,26.44
2018-09-20T11:11:25.582Z,26.45
2018-09-20T11:12:25.522Z,26.56
2018-09-20T11:13:25.440Z,26.71
2018-09-20T11:14:25.379Z,26.74
2018-09-20T11:15:25.303Z,26.90
2018-09-20T11:16:25.241Z,26.93
2018-09-20T11:17:25.165Z,27.03
2018-09-20T11:18:25.098Z,27.18
2018-09-20T11:19:25.037Z,27.25
2018-09-20T11:20:24.972Z,27.36
2018-09-20T11:21:24.896Z,27.39
2018-09-20T11:22:24.826Z,27.49
2018-09-20T11:23:24.768Z,27.63
2018-09-20T11:24:24.707Z,27.70
2018-09-20T11:25:24.737Z,27.98
2018-09-20T11:26:24.563Z,28.47
2018-09-20T11:27:24.525Z,29.04
2018-09-20T11:28:24.435Z,29.44
2018-09-20T11:29:24.382Z,30.02
2018-09-20T11:30:24.334Z,30.61
2018-09-20T11:31:24.253Z,31.02
2018-09-20T11:32:24.183Z,31.51
2018-09-20T11:33:24.129Z,32.03
2018-09-20T11:34:24.059Z,32.40
2018-09-20T11:35:24.001Z,32.71
2018-09-20T11:36:23.984Z,33.09
2018-09-20T11:37:23.878Z,33.42
2018-09-20T11:38:23.817Z,33.79
2018-09-20T11:39:23.758Z,34.03
2018-09-20T11:40:23.698Z,34.20
2018-09-20T11:41:23.640Z,34.42
2018-09-20T11:42:23.576Z,34.61
2018-09-20T11:43:23.525Z,34.97
2018-09-20T11:44:23.457Z,35.33
2018-09-20T11:45:23.398Z,35.73
2018-09-20T11:46:23.352Z,35.93
2018-09-20T11:47:23.308Z,36.14
2018-09-20T11:48:23.229Z,36.37
2018-09-20T11:49:23.167Z,36.70
2018-09-20T11:50:23.116Z,36.96
2018-09-20T11:51:23.061Z,37.23
2018-09-20T11:52:22.991Z,37.49
2018-09-20T11:53:22.934Z,37.77
2018-09-20T11:54:22.877Z,37.90
2018-09-20T11:55:22.829Z,38.08
2018-09-20T11:56:22.771Z,38.20
2018-09-20T11:57:22.714Z,38.46
2018-09-20T11:58:22.654Z,38.77
2018-09-20T11:59:22.596Z,39.07
2018-09-20T12:00:22.539Z,39.15
2018-09-20T12:01:22.531Z,39.46
2018-09-20T12:02:22.489Z,39.75
2018-09-20T12:03:22.379Z,39.74
2018-09-20T12:04:22.327Z,39.78
2018-09-20T12:05:22.266Z,39.70
2018-09-20T12:06:22.209Z,39.81
2018-09-20T12:07:22.152Z,39.77
2018-09-20T12:08:22.099Z,39.78
2018-09-20T12:09:22.043Z,39.78
2018-09-20T12:10:21.990Z,39.77
2018-09-20T12:11:21.949Z,39.62
2018-09-20T12:12:21.896Z,39.60
2018-09-20T12:13:21.826Z,39.75
2018-09-20T12:14:21.811Z,40.11
2018-09-20T12:15:21.778Z,40.33
2018-09-20T12:16:21.671Z,40.65
2018-09-20T12:17:21.614Z,40.92
2018-09-20T12:18:21.571Z,41.28
2018-09-20T12:19:21.505Z,41.62
2018-09-20T12:20:21.457Z,41.74
2018-09-20T12:21:21.394Z,41.92
2018-09-20T12:22:21.343Z,41.90
2018-09-20T12:23:21.288Z,41.83
2018-09-20T12:24:21.238Z,41.72
2018-09-20T12:25:21.251Z,41.63
2018-09-20T12:26:21.134Z,41.62
2018-09-20T12:27:21.076Z,41.52
2018-09-20T12:28:21.022Z,41.36
2018-09-20T12:29:20.970Z,41.49
2018-09-20T12:31:52.556Z,41.82
2018-09-20T12:32:52.439Z,42.04
2018-09-20T12:33:52.343Z,42.25
2018-09-20T12:34:52.297Z,42.57
2018-09-20T12:35:52.318Z,42.69
2018-09-20T12:36:52.192Z,42.86
2018-09-20T12:37:52.143Z,42.92
2018-09-20T12:38:52.172Z,42.85
2018-09-20T12:39:52.030Z,42.94
2018-09-20T12:40:51.982Z,42.85
2018-09-20T12:41:51.926Z,42.67
2018-09-20T12:42:51.939Z,42.79
2018-09-20T12:43:51.824Z,42.88
2018-09-20T12:44:51.769Z,43.10
2018-09-20T12:45:51.724Z,42.95
2018-09-20T12:46:51.669Z,42.82
2018-09-20T12:47:51.619Z,42.53
2018-09-20T12:48:51.562Z,42.51
2018-09-20T12:49:51.512Z,42.65
2018-09-20T12:50:51.467Z,42.69
2018-09-20T12:51:51.409Z,42.78
2018-09-20T12:52:51.357Z,42.70
2018-09-20T12:53:51.302Z,42.38
2018-09-20T12:54:51.250Z,42.35
2018-09-20T12:55:51.202Z,42.66
2018-09-20T12:56:51.145Z,42.67
2018-09-20T12:57:51.121Z,42.78